Time;durP1;ratioP1;P1;durP2;ratioP2;P2;SDS_P1;SDS_P2;PMS_P1;PMS_P2;Temp;Humidity;BMP_temperature;BMP_pressure;BME280_temperature;BME280_humidity;BME280_pressure;Samples;Min_cycle;Max_cycle;Signal;HPM_P1;HPM_P2
2023/03/12 00:00:48;;;;;;;6.65;3.22;;;;;;;;;;5023149;28;20504;-62
2023/03/12 00:03:14;;;;;;;7.60;3.10;;;;;;;;;;5002268;28;20045;-63
2023/03/12 00:05:41;;;;;;;8.52;3.55;;;;;;;;;;5027166;28;20083;-62
2023/03/12 00:08:07;;;;;;;7.28;3.78;;;;;;;;;;5026471;28;20037;-62
2023/03/12 00:10:33;;;;;;;5.65;3.88;;;;;;;;;;5005217;28;20381;-62
2023/03/12 00:13:00;;;;;;;9.43;3.78;;;;;;;;;;5018138;28;20045;-62
2023/03/12 00:15:26;;;;;;;6.22;4.38;;;;;;;;;;5021980;28;20074;-62
2023/03/12 00:17:52;;;;;;;7.15;3.97;;;;;;;;;;5027607;28;20059;-62
2023/03/12 00:20:19;;;;;;;6.82;4.70;;;;;;;;;;5010302;28;20159;-63
2023/03/12 00:22:45;;;;;;;6.90;4.32;;;;;;;;;;5039698;28;20489;-62
2023/03/12 00:25:13;;;;;;;6.75;4.15;;;;;;;;;;5028792;28;20029;-62
2023/03/12 00:27:39;;;;;;;4.93;3.65;;;;;;;;;;5041991;28;20076;-62
2023/03/12 00:30:06;;;;;;;8.00;3.80;;;;;;;;;;5045017;28;20625;-63
2023/03/12 00:32:32;;;;;;;10.32;4.57;;;;;;;;;;5047544;28;20126;-64
2023/03/12 00:34:58;;;;;;;8.43;4.00;;;;;;;;;;5045383;28;20094;-63
2023/03/12 00:37:24;;;;;;;12.35;4.75;;;;;;;;;;5047818;28;20044;-63
2023/03/12 00:39:51;;;;;;;9.60;4.15;;;;;;;;;;5045704;28;20503;-63
2023/03/12 00:42:17;;;;;;;5.15;3.53;;;;;;;;;;5047819;28;20068;-63
2023/03/12 00:44:44;;;;;;;5.80;4.30;;;;;;;;;;5052266;28;20044;-63
2023/03/12 00:47:10;;;;;;;5.95;3.92;;;;;;;;;;5047010;28;20036;-63
2023/03/12 00:49:37;;;;;;;9.40;4.10;;;;;;;;;;5028437;28;20142;-63
2023/03/12 00:52:03;;;;;;;7.97;4.20;;;;;;;;;;5029560;28;20075;-63
2023/03/12 00:54:30;;;;;;;9.88;4.05;;;;;;;;;;5042056;28;20384;-63
2023/03/12 00:56:56;;;;;;;10.32;4.68;;;;;;;;;;5044045;28;20068;-63
2023/03/12 00:59:22;;;;;;;8.05;4.95;;;;;;;;;;5040961;28;20075;-63
2023/03/12 01:01:48;;;;;;;6.22;4.15;;;;;;;;;;5038253;28;20122;-63
2023/03/12 01:04:16;;;;;;;6.45;4.65;;;;;;;;;;5024830;28;20041;-63
2023/03/12 01:06:42;;;;;;;5.38;4.40;;;;;;;;;;5040679;28;20053;-63
2023/03/12 01:09:09;;;;;;;9.25;5.00;;;;;;;;;;5016412;28;20026;-63
2023/03/12 01:11:36;;;;;;;7.10;4.47;;;;;;;;;;5045135;28;20068;-63
2023/03/12 01:14:03;;;;;;;8.85;4.38;;;;;;;;;;5046927;28;20040;-63
2023/03/12 01:16:29;;;;;;;9.05;5.07;;;;;;;;;;5046093;28;20450;-63
2023/03/12 01:18:57;;;;;;;8.57;4.70;;;;;;;;;;5046937;28;20037;-63
2023/03/12 01:21:23;;;;;;;5.70;4.45;;;;;;;;;;5042372;28;20052;-63
2023/03/12 01:23:50;;;;;;;5.75;3.90;;;;;;;;;;5040590;28;20138;-63
2023/03/12 01:26:16;;;;;;;5.25;3.63;;;;;;;;;;5046428;28;20183;-63
2023/03/12 01:28:42;;;;;;;6.35;4.65;;;;;;;;;;5030514;28;20522;-63
2023/03/12 01:31:13;;;;;;;7.65;4.75;;;;;;;;;;5010784;28;20033;-63
2023/03/12 01:33:40;;;;;;;6.82;4.55;;;;;;;;;;5027046;28;20106;-63
2023/03/12 01:36:14;;;;;;;6.53;4.65;;;;;;;;;;4998255;28;20463;-63
2023/03/12 01:38:41;;;;;;;5.07;3.58;;;;;;;;;;4999466;28;20045;-65
2023/03/12 01:41:07;;;;;;;21.98;3.88;;;;;;;;;;5027403;28;20041;-63
2023/03/12 01:43:35;;;;;;;5.60;3.72;;;;;;;;;;5030300;28;20126;-63
2023/03/12 01:46:04;;;;;;;8.68;4.50;;;;;;;;;;5029054;28;20102;-63
2023/03/12 01:48:32;;;;;;;8.23;3.65;;;;;;;;;;5014571;28;20045;-63
2023/03/12 01:50:58;;;;;;;6.28;4.78;;;;;;;;;;5032452;28;20037;-63
2023/03/12 01:53:25;;;;;;;5.90;3.70;;;;;;;;;;5029940;28;20037;-63
2023/03/12 01:55:51;;;;;;;8.77;3.97;;;;;;;;;;5034900;28;20159;-63
2023/03/12 01:58:17;;;;;;;7.70;3.95;;;;;;;;;;5031461;28;20144;-63
2023/03/12 02:00:44;;;;;;;6.60;3.97;;;;;;;;;;5027084;28;20542;-63
2023/03/12 02:03:10;;;;;;;8.35;3.95;;;;;;;;;;5035822;28;20071;-63
2023/03/12 02:05:37;;;;;;;6.63;4.18;;;;;;;;;;5028535;28;20055;-63
2023/03/12 02:08:04;;;;;;;5.05;3.78;;;;;;;;;;5032087;28;20510;-63
2023/03/12 02:10:30;;;;;;;5.35;3.58;;;;;;;;;;5031366;28;20041;-63
2023/03/12 02:12:57;;;;;;;6.32;4.13;;;;;;;;;;5030443;28;20057;-63
2023/03/12 02:15:23;;;;;;;5.57;3.90;;;;;;;;;;5021879;28;20052;-63
2023/03/12 02:17:49;;;;;;;5.20;3.70;;;;;;;;;;5012249;28;20078;-63
2023/03/12 02:20:18;;;;;;;7.32;3.95;;;;;;;;;;5020474;28;20400;-64
2023/03/12 02:22:49;;;;;;;6.97;4.55;;;;;;;;;;5028884;28;20041;-72
2023/03/12 02:25:29;;;;;;;5.90;3.65;;;;;;;;;;5024497;28;20400;-63
2023/03/12 02:27:57;;;;;;;6.63;3.72;;;;;;;;;;5041081;28;20068;-65
2023/03/12 02:30:23;;;;;;;8.35;4.32;;;;;;;;;;5038043;28;20041;-63
2023/03/12 02:32:51;;;;;;;5.43;3.65;;;;;;;;;;5030116;28;20087;-63
2023/03/12 02:35:17;;;;;;;6.43;4.15;;;;;;;;;;5045651;28;20037;-63
2023/03/12 02:37:50;;;;;;;6.65;4.22;;;;;;;;;;5028714;28;20049;-63
2023/03/12 02:40:21;;;;;;;6.88;3.83;;;;;;;;;;5044850;28;20037;-63
2023/03/12 02:42:47;;;;;;;8.25;4.50;;;;;;;;;;5047199;28;20144;-63
2023/03/12 02:45:13;;;;;;;7.22;4.30;;;;;;;;;;5031729;28;20102;-63
2023/03/12 02:47:40;;;;;;;5.93;4.03;;;;;;;;;;5054683;28;20051;-63
2023/03/12 02:50:06;;;;;;;8.52;4.45;;;;;;;;;;5052703;28;20044;-63
2023/03/12 02:52:35;;;;;;;7.93;5.70;;;;;;;;;;5048257;28;20037;-63
2023/03/12 02:55:01;;;;;;;6.47;3.58;;;;;;;;;;5030044;28;20087;-63
2023/03/12 02:57:27;;;;;;;6.28;3.83;;;;;;;;;;5044993;28;20045;-63
2023/03/12 02:59:53;;;;;;;6.85;4.38;;;;;;;;;;5041722;28;20041;-63
2023/03/12 03:02:20;;;;;;;6.63;4.28;;;;;;;;;;5049176;28;20491;-63
2023/03/12 03:04:46;;;;;;;10.88;3.83;;;;;;;;;;5048038;28;20106;-63
2023/03/12 03:07:13;;;;;;;9.38;4.53;;;;;;;;;;5021323;28;20037;-63
2023/03/12 03:09:39;;;;;;;9.30;4.53;;;;;;;;;;5037368;28;20479;-63
2023/03/12 03:12:06;;;;;;;7.05;4.20;;;;;;;;;;5046446;28;20036;-64
2023/03/12 03:14:32;;;;;;;6.80;3.80;;;;;;;;;;5048859;28;20123;-63
2023/03/12 03:16:58;;;;;;;4.90;3.92;;;;;;;;;;5041597;28;20040;-63
2023/03/12 03:19:24;;;;;;;5.68;3.45;;;;;;;;;;5046170;28;20057;-63
2023/03/12 03:21:50;;;;;;;8.95;4.03;;;;;;;;;;5045313;28;20511;-63
2023/03/12 03:24:16;;;;;;;9.45;4.15;;;;;;;;;;5042449;28;20121;-63
2023/03/12 03:26:43;;;;;;;6.72;3.50;;;;;;;;;;5047565;28;20106;-63
2023/03/12 03:29:09;;;;;;;11.05;4.82;;;;;;;;;;5041941;28;20070;-63
2023/03/12 03:31:35;;;;;;;9.27;4.10;;;;;;;;;;5027754;28;20182;-63
2023/03/12 03:34:03;;;;;;;6.50;4.15;;;;;;;;;;5031073;28;20048;-63
2023/03/12 03:36:29;;;;;;;6.68;3.63;;;;;;;;;;5051269;28;20060;-63
2023/03/12 03:38:55;;;;;;;6.45;4.57;;;;;;;;;;5056302;28;20033;-63
2023/03/12 03:41:22;;;;;;;7.70;4.15;;;;;;;;;;5044622;28;20651;-63
2023/03/12 03:43:48;;;;;;;11.85;4.60;;;;;;;;;;5030447;28;20102;-63
2023/03/12 03:46:15;;;;;;;8.00;4.05;;;;;;;;;;5048163;28;20069;-63
2023/03/12 03:48:41;;;;;;;5.97;4.10;;;;;;;;;;5048044;28;20195;-63
2023/03/12 03:51:08;;;;;;;6.43;4.13;;;;;;;;;;5048174;28;20047;-63
2023/03/12 03:53:35;;;;;;;6.63;3.92;;;;;;;;;;5029067;28;20155;-63
2023/03/12 03:56:27;;;;;;;7.43;4.05;;;;;;;;;;5034371;28;20471;-63
2023/03/12 03:58:53;;;;;;;4.90;3.72;;;;;;;;;;5038627;28;20060;-63
2023/03/12 04:01:19;;;;;;;8.30;4.32;;;;;;;;;;5042835;28;20124;-63
2023/03/12 04:03:45;;;;;;;5.75;3.42;;;;;;;;;;5037072;28;20186;-63
2023/03/12 04:06:12;;;;;;;8.52;3.65;;;;;;;;;;5042301;28;20071;-63
2023/03/12 04:08:39;;;;;;;6.13;3.95;;;;;;;;;;5043615;28;20041;-63
2023/03/12 04:11:13;;;;;;;9.38;4.35;;;;;;;;;;5039890;28;20561;-63
2023/03/12 04:13:43;;;;;;;5.55;3.58;;;;;;;;;;5047782;28;20107;-63
2023/03/12 04:16:09;;;;;;;7.20;3.25;;;;;;;;;;5047218;28;20125;-63
2023/03/12 04:18:35;;;;;;;6.57;4.82;;;;;;;;;;5040698;28;20073;-63
2023/03/12 04:21:02;;;;;;;6.75;4.05;;;;;;;;;;5040285;28;20108;-63
2023/03/12 04:23:28;;;;;;;6.75;3.13;;;;;;;;;;5037745;28;20053;-63
2023/03/12 04:25:54;;;;;;;6.18;4.30;;;;;;;;;;5048305;28;20507;-63
2023/03/12 04:28:20;;;;;;;6.68;3.90;;;;;;;;;;5038019;28;20127;-63
2023/03/12 04:30:53;;;;;;;4.90;3.78;;;;;;;;;;5037710;28;20041;-63
2023/03/12 04:33:19;;;;;;;11.35;4.28;;;;;;;;;;5044974;28;20043;-63
2023/03/12 04:35:52;;;;;;;7.03;4.03;;;;;;;;;;5048532;28;20106;-63
2023/03/12 04:38:18;;;;;;;;;;;;;;;;;;5045206;28;20041;-63
2023/03/12 04:40:45;;;;;;;5.72;3.25;;;;;;;;;;5047432;28;20371;-63
2023/03/12 04:43:11;;;;;;;6.50;3.22;;;;;;;;;;5039638;28;20067;-63
2023/03/12 04:45:38;;;;;;;8.73;4.40;;;;;;;;;;5047705;28;20112;-63
2023/03/12 04:48:05;;;;;;;9.93;4.25;;;;;;;;;;5018431;28;20045;-63
2023/03/12 04:50:31;;;;;;;5.78;3.17;;;;;;;;;;5039433;28;20047;-63
2023/03/12 04:52:57;;;;;;;4.32;3.20;;;;;;;;;;5045011;28;20475;-63
2023/03/12 04:55:23;;;;;;;9.40;4.45;;;;;;;;;;5029340;28;20207;-63
2023/03/12 04:57:49;;;;;;;6.00;3.63;;;;;;;;;;5041020;28;20053;-63
2023/03/12 05:00:16;;;;;;;6.32;3.55;;;;;;;;;;5021349;28;20071;-63
2023/03/12 05:02:42;;;;;;;6.45;3.97;;;;;;;;;;5039904;28;20075;-63
2023/03/12 05:05:10;;;;;;;6.38;3.42;;;;;;;;;;5044856;28;20044;-63
2023/03/12 05:07:36;;;;;;;7.65;4.57;;;;;;;;;;5047148;28;20120;-63
2023/03/12 05:10:03;;;;;;;8.02;3.72;;;;;;;;;;5054062;28;20310;-63
2023/03/12 05:12:29;;;;;;;6.30;4.03;;;;;;;;;;5048490;28;20546;-63
2023/03/12 05:14:55;;;;;;;7.63;4.18;;;;;;;;;;5046316;28;20085;-63
2023/03/12 05:17:21;;;;;;;7.50;4.05;;;;;;;;;;5047434;28;20123;-63
2023/03/12 05:19:47;;;;;;;12.73;6.10;;;;;;;;;;5011983;28;20049;-63
2023/03/12 05:22:13;;;;;;;8.00;3.83;;;;;;;;;;5047091;28;20045;-63
2023/03/12 05:24:40;;;;;;;6.28;3.38;;;;;;;;;;5028865;28;20037;-63
2023/03/12 05:27:07;;;;;;;5.45;4.13;;;;;;;;;;5047005;28;20049;-63
2023/03/12 05:29:34;;;;;;;6.47;4.30;;;;;;;;;;5034780;28;20045;-63
2023/03/12 05:32:01;;;;;;;7.53;3.45;;;;;;;;;;5045733;28;20491;-63
2023/03/12 05:34:29;;;;;;;7.90;4.32;;;;;;;;;;5039849;28;20063;-63
2023/03/12 05:36:55;;;;;;;6.10;3.83;;;;;;;;;;5047368;28;20084;-63
2023/03/12 05:39:22;;;;;;;6.70;3.33;;;;;;;;;;5044843;28;20053;-63
2023/03/12 05:41:48;;;;;;;7.45;3.65;;;;;;;;;;5046653;28;20683;-63
2023/03/12 05:44:15;;;;;;;7.68;4.55;;;;;;;;;;5045770;28;20037;-63
2023/03/12 05:46:43;;;;;;;7.35;3.90;;;;;;;;;;5047279;28;20468;-63
2023/03/12 05:49:10;;;;;;;5.63;3.35;;;;;;;;;;5026324;28;20055;-63
2023/03/12 05:51:36;;;;;;;8.82;3.92;;;;;;;;;;5045962;28;20045;-63
2023/03/12 05:54:02;;;;;;;9.20;3.55;;;;;;;;;;5043863;28;20091;-63
2023/03/12 05:56:29;;;;;;;6.32;3.45;;;;;;;;;;5053727;28;20124;-63
2023/03/12 05:58:55;;;;;;;6.15;3.58;;;;;;;;;;5027365;28;20183;-63
2023/03/12 06:01:26;;;;;;;8.80;4.07;;;;;;;;;;5023852;28;20490;-63
2023/03/12 06:03:53;;;;;;;5.95;4.03;;;;;;;;;;5045590;28;20033;-63
2023/03/12 06:06:19;;;;;;;6.70;3.65;;;;;;;;;;5053088;28;20470;-63
2023/03/12 06:08:45;;;;;;;9.13;4.32;;;;;;;;;;5044921;28;20045;-63
2023/03/12 06:11:12;;;;;;;5.38;3.67;;;;;;;;;;5046170;28;20041;-64
2023/03/12 06:13:38;;;;;;;6.60;3.72;;;;;;;;;;5046833;28;20049;-63
2023/03/12 06:16:06;;;;;;;6.13;4.03;;;;;;;;;;5045993;28;20045;-63
2023/03/12 06:18:32;;;;;;;11.32;4.85;;;;;;;;;;5045820;28;20478;-63
2023/03/12 06:21:12;;;;;;;6.15;4.13;;;;;;;;;;5046358;28;20104;-63
2023/03/12 06:23:38;;;;;;;7.20;3.60;;;;;;;;;;5045034;28;20045;-63
2023/03/12 06:26:05;;;;;;;8.98;3.72;;;;;;;;;;5046702;28;20072;-63
2023/03/12 06:28:31;;;;;;;8.82;4.55;;;;;;;;;;5048010;28;20071;-63
2023/03/12 06:30:57;;;;;;;7.95;3.40;;;;;;;;;;5032795;28;20051;-63
2023/03/12 06:33:23;;;;;;;5.53;4.30;;;;;;;;;;5032383;28;20091;-63
2023/03/12 06:35:52;;;;;;;7.90;4.30;;;;;;;;;;5048259;28;20048;-63
2023/03/12 06:38:18;;;;;;;9.20;4.10;;;;;;;;;;5040807;28;20259;-63
2023/03/12 06:40:52;;;;;;;7.30;3.85;;;;;;;;;;5023379;28;20302;-64
2023/03/12 06:43:18;;;;;;;8.98;4.45;;;;;;;;;;5043453;28;20038;-64
2023/03/12 06:45:45;;;;;;;6.13;4.15;;;;;;;;;;5039568;28;20045;-64
2023/03/12 06:48:11;;;;;;;8.98;4.38;;;;;;;;;;5020981;28;20033;-64
2023/03/12 06:50:37;;;;;;;7.38;3.78;;;;;;;;;;5039246;28;20044;-64
2023/03/12 06:53:03;;;;;;;10.95;4.45;;;;;;;;;;5027244;28;20048;-64
2023/03/12 06:55:30;;;;;;;7.35;4.20;;;;;;;;;;5045545;28;20494;-64
2023/03/12 06:57:56;;;;;;;7.53;4.38;;;;;;;;;;5048831;28;20100;-64
2023/03/12 07:00:22;;;;;;;8.80;4.75;;;;;;;;;;5018419;28;20446;-64
2023/03/12 07:02:48;;;;;;;7.25;4.68;;;;;;;;;;5045511;28;20045;-63
2023/03/12 07:05:14;;;;;;;9.07;4.18;;;;;;;;;;5029864;28;20041;-64
2023/03/12 07:07:40;;;;;;;9.35;4.38;;;;;;;;;;5049381;28;20025;-64
2023/03/12 07:10:07;;;;;;;8.40;4.68;;;;;;;;;;5029557;28;20037;-64
2023/03/12 07:12:33;;;;;;;7.65;4.75;;;;;;;;;;5039879;28;20041;-63
2023/03/12 07:14:59;;;;;;;9.18;4.45;;;;;;;;;;5030458;28;20044;-63
2023/03/12 07:17:26;;;;;;;8.00;4.90;;;;;;;;;;5041974;28;20045;-64
2023/03/12 07:19:52;;;;;;;8.75;5.10;;;;;;;;;;5026897;28;20052;-64
2023/03/12 07:22:18;;;;;;;9.38;5.55;;;;;;;;;;5043624;28;20041;-63
2023/03/12 07:24:44;;;;;;;10.13;5.65;;;;;;;;;;5006639;28;20044;-64
2023/03/12 07:27:11;;;;;;;6.13;4.78;;;;;;;;;;5038538;28;20100;-64
2023/03/12 07:29:37;;;;;;;7.03;5.03;;;;;;;;;;5024369;28;20047;-63
2023/03/12 07:32:03;;;;;;;8.90;5.47;;;;;;;;;;5043865;28;20076;-63
2023/03/12 07:34:29;;;;;;;9.40;5.70;;;;;;;;;;5029756;28;20053;-63
2023/03/12 07:36:56;;;;;;;7.43;5.28;;;;;;;;;;5038188;28;20120;-63
2023/03/12 07:39:22;;;;;;;9.20;5.60;;;;;;;;;;5037906;28;20072;-63
2023/03/12 07:41:48;;;;;;;10.75;5.50;;;;;;;;;;5030699;28;20111;-63
2023/03/12 07:44:14;;;;;;;14.38;5.45;;;;;;;;;;5026388;28;20040;-63
2023/03/12 07:46:40;;;;;;;6.38;5.07;;;;;;;;;;5048249;28;20044;-63
2023/03/12 07:49:06;;;;;;;10.55;5.78;;;;;;;;;;5041373;28;20060;-64
2023/03/12 07:51:32;;;;;;;8.65;5.90;;;;;;;;;;5042648;28;20098;-64
2023/03/12 07:53:59;;;;;;;7.32;5.07;;;;;;;;;;5046727;28;20060;-64
2023/03/12 07:56:25;;;;;;;6.97;4.63;;;;;;;;;;5040227;28;20131;-63
2023/03/12 07:58:51;;;;;;;8.20;5.53;;;;;;;;;;5042043;28;20045;-64
2023/03/12 08:01:17;;;;;;;8.07;5.10;;;;;;;;;;5046059;28;20047;-63
2023/03/12 08:03:43;;;;;;;8.38;4.60;;;;;;;;;;5048265;28;20048;-63
2023/03/12 08:06:10;;;;;;;7.18;5.07;;;;;;;;;;5044156;28;20029;-63
2023/03/12 08:08:40;;;;;;;6.70;4.82;;;;;;;;;;5044419;28;20044;-63
2023/03/12 08:11:06;;;;;;;8.15;6.07;;;;;;;;;;5028216;28;20099;-63
2023/03/12 08:13:32;;;;;;;10.52;5.28;;;;;;;;;;5025154;28;20354;-63
2023/03/12 08:15:58;;;;;;;8.48;5.20;;;;;;;;;;5037123;28;20041;-63
2023/03/12 08:18:24;;;;;;;6.95;5.15;;;;;;;;;;5047557;28;20041;-64
2023/03/12 08:20:51;;;;;;;8.10;5.40;;;;;;;;;;5039425;28;20331;-63
2023/03/12 08:23:17;;;;;;;10.30;5.35;;;;;;;;;;5015997;28;20095;-63
2023/03/12 08:25:47;;;;;;;8.52;5.82;;;;;;;;;;5029054;28;20098;-64
2023/03/12 08:28:14;;;;;;;7.47;5.38;;;;;;;;;;5028970;28;20471;-63
2023/03/12 08:30:44;;;;;;;8.68;5.53;;;;;;;;;;5045483;28;20040;-63
2023/03/12 08:33:10;;;;;;;7.05;5.55;;;;;;;;;;5044764;28;20041;-63
2023/03/12 08:35:36;;;;;;;13.02;5.88;;;;;;;;;;5040986;28;20048;-63
2023/03/12 08:38:02;;;;;;;8.68;5.55;;;;;;;;;;5041294;28;20052;-63
2023/03/12 08:40:29;;;;;;;9.57;6.50;;;;;;;;;;5036762;28;20580;-63
2023/03/12 08:42:55;;;;;;;13.90;7.18;;;;;;;;;;5039939;28;20079;-63
2023/03/12 08:45:21;;;;;;;9.60;6.75;;;;;;;;;;5043786;28;20037;-63
2023/03/12 08:47:47;;;;;;;10.35;6.93;;;;;;;;;;5044336;28;20076;-63
2023/03/12 08:50:15;;;;;;;7.20;6.28;;;;;;;;;;5042377;28;20038;-63
2023/03/12 08:52:41;;;;;;;10.90;6.80;;;;;;;;;;5038892;28;20052;-63
2023/03/12 08:55:08;;;;;;;8.35;6.68;;;;;;;;;;5040010;28;20265;-63
2023/03/12 08:57:34;;;;;;;11.38;6.72;;;;;;;;;;5041583;28;20033;-63
2023/03/12 09:00:00;;;;;;;12.10;7.68;;;;;;;;;;5023957;28;20063;-63
2023/03/12 09:02:27;;;;;;;8.25;6.32;;;;;;;;;;5038649;28;20049;-63
2023/03/12 09:04:53;;;;;;;10.15;7.15;;;;;;;;;;5042868;28;20053;-63
2023/03/12 09:07:21;;;;;;;14.93;7.97;;;;;;;;;;5042773;28;20385;-63
2023/03/12 09:09:47;;;;;;;9.00;6.72;;;;;;;;;;5035531;28;20109;-63
2023/03/12 09:12:13;;;;;;;8.00;6.68;;;;;;;;;;5028252;28;20044;-63
2023/03/12 09:14:39;;;;;;;11.43;6.97;;;;;;;;;;5042155;28;20045;-63
2023/03/12 09:17:05;;;;;;;8.95;6.93;;;;;;;;;;5040081;28;20044;-63
2023/03/12 09:19:32;;;;;;;8.80;7.18;;;;;;;;;;5042433;28;20185;-63
2023/03/12 09:21:58;;;;;;;9.68;7.50;;;;;;;;;;5045784;28;20410;-63
2023/03/12 09:24:24;;;;;;;10.30;6.68;;;;;;;;;;5042916;28;20044;-63
2023/03/12 09:26:50;;;;;;;9.60;6.10;;;;;;;;;;5041167;28;20554;-63
2023/03/12 09:29:16;;;;;;;11.40;7.75;;;;;;;;;;5038984;28;20475;-63
2023/03/12 09:31:42;;;;;;;10.00;7.35;;;;;;;;;;5044008;28;20200;-63
2023/03/12 09:34:09;;;;;;;9.38;7.47;;;;;;;;;;5044349;28;20514;-63
2023/03/12 09:36:35;;;;;;;9.75;7.47;;;;;;;;;;5044963;28;20419;-63
2023/03/12 09:39:01;;;;;;;9.95;8.13;;;;;;;;;;5043978;28;20398;-63
2023/03/12 09:41:29;;;;;;;8.02;7.15;;;;;;;;;;5044987;28;20041;-63
2023/03/12 09:44:02;;;;;;;11.07;7.60;;;;;;;;;;5043531;28;20047;-64
2023/03/12 09:46:28;;;;;;;;;;;;;;;;;;5038491;28;20538;-63
2023/03/12 09:48:56;;;;;;;10.18;7.72;;;;;;;;;;5025420;28;19917;-63
2023/03/12 09:51:35;;;;;;;12.43;8.48;;;;;;;;;;5043463;28;20049;-63
2023/03/12 09:54:03;;;;;;;10.70;7.25;;;;;;;;;;5044552;28;20087;-63
2023/03/12 09:56:30;;;;;;;11.35;7.05;;;;;;;;;;5051070;28;20045;-64
2023/03/12 09:58:56;;;;;;;9.48;7.70;;;;;;;;;;5043486;28;20107;-64
2023/03/12 10:01:40;;;;;;;13.82;8.35;;;;;;;;;;5047839;28;20041;-63
2023/03/12 10:04:12;;;;;;;13.52;8.70;;;;;;;;;;5038926;28;20032;-63
2023/03/12 10:06:46;;;;;;;13.43;7.45;;;;;;;;;;5053710;28;20223;-63
2023/03/12 10:09:12;;;;;;;14.07;8.32;;;;;;;;;;5047102;28;20095;-63
2023/03/12 10:11:38;;;;;;;14.50;8.32;;;;;;;;;;5043584;28;20120;-63
2023/03/12 10:14:04;;;;;;;12.48;7.95;;;;;;;;;;5046146;28;20037;-63
2023/03/12 10:16:49;;;;;;;10.80;7.53;;;;;;;;;;5050279;28;20044;-63
2023/03/12 10:19:24;;;;;;;11.82;7.85;;;;;;;;;;5043935;28;20481;-64
2023/03/12 10:21:51;;;;;;;11.48;7.78;;;;;;;;;;5047875;28;20203;-64
2023/03/12 10:24:21;;;;;;;12.85;9.43;;;;;;;;;;5027024;28;21038;-64
2023/03/12 10:26:50;;;;;;;13.75;8.65;;;;;;;;;;5024191;28;20125;-64
2023/03/12 10:29:18;;;;;;;11.65;8.50;;;;;;;;;;5025442;28;20104;-64
2023/03/12 10:31:53;;;;;;;11.50;8.18;;;;;;;;;;5013860;28;20036;-64
2023/03/12 10:34:25;;;;;;;13.10;9.80;;;;;;;;;;5026661;28;20067;-64
2023/03/12 10:36:52;;;;;;;12.73;10.00;;;;;;;;;;5023195;28;20111;-63
2023/03/12 10:39:19;;;;;;;13.45;9.95;;;;;;;;;;5015546;28;20037;-64
2023/03/12 10:41:47;;;;;;;13.20;9.25;;;;;;;;;;5005492;28;20498;-64
2023/03/12 10:44:23;;;;;;;10.52;9.27;;;;;;;;;;5024302;28;20053;-64
2023/03/12 10:47:07;;;;;;;16.38;10.00;;;;;;;;;;5029722;28;20125;-63
2023/03/12 10:49:35;;;;;;;15.50;8.88;;;;;;;;;;5039598;28;20044;-63
2023/03/12 10:52:18;;;;;;;17.35;10.52;;;;;;;;;;5031270;28;20041;-68
2023/03/12 10:54:46;;;;;;;14.68;11.20;;;;;;;;;;5021116;28;20033;-69
2023/03/12 10:57:14;;;;;;;14.07;10.52;;;;;;;;;;5026151;28;20121;-66
2023/03/12 10:59:44;;;;;;;16.23;12.10;;;;;;;;;;5026813;28;20113;-65
2023/03/12 11:02:30;;;;;;;24.13;16.48;;;;;;;;;;5027195;28;20116;-65
2023/03/12 11:04:57;;;;;;;22.20;15.25;;;;;;;;;;4981203;28;20307;-66
2023/03/12 11:07:29;;;;;;;19.38;15.13;;;;;;;;;;5029587;28;20044;-66
2023/03/12 11:10:08;;;;;;;20.10;13.95;;;;;;;;;;5029005;28;20033;-66
2023/03/12 11:12:35;;;;;;;20.90;13.93;;;;;;;;;;5022855;28;20113;-66
2023/03/12 11:15:19;;;;;;;20.33;15.05;;;;;;;;;;5026358;28;20037;-66
2023/03/12 11:17:45;;;;;;;21.92;15.35;;;;;;;;;;5030366;28;20072;-65
2023/03/12 11:20:38;;;;;;;21.00;14.57;;;;;;;;;;5006026;28;20041;-66
2023/03/12 11:23:14;;;;;;;26.67;18.73;;;;;;;;;;5021639;28;20061;-66
2023/03/12 11:25:41;;;;;;;25.73;18.30;;;;;;;;;;5013603;28;20151;-66
2023/03/12 11:28:10;;;;;;;29.02;18.60;;;;;;;;;;4985983;28;20049;-66
2023/03/12 11:30:38;;;;;;;26.08;18.90;;;;;;;;;;5028220;28;20132;-65
2023/03/12 11:33:05;;;;;;;24.35;18.15;;;;;;;;;;5049136;28;20091;-66
2023/03/12 11:35:43;;;;;;;28.92;19.70;;;;;;;;;;5044567;28;20049;-66
2023/03/12 11:38:15;;;;;;;30.77;20.05;;;;;;;;;;5048078;28;20186;-66
2023/03/12 11:40:47;;;;;;;26.03;20.03;;;3.70;99.90;;;;;;5043763;28;20080;-66
2023/03/12 11:43:16;;;;;;;29.33;20.52;;;4.40;99.90;;;;;;5030028;28;20072;-66
2023/03/12 11:45:42;;;;;;;29.17;18.38;;;;;;;;;;5046222;28;20206;-66
2023/03/12 11:48:28;;;;;;;24.23;17.67;;;;;;;;;;5040572;28;20502;-65
2023/03/12 11:51:01;;;;;;;26.05;18.75;;;;;;;;;;5044363;28;20072;-66
2023/03/12 11:53:52;;;;;;;28.95;18.27;;;;;;;;;;5042633;28;20233;-66
2023/03/12 11:56:24;;;;;;;28.30;19.23;;;;;;;;;;5044093;28;20036;-66
2023/03/12 11:58:50;;;;;;;25.93;18.77;;;;;;;;;;5043101;28;20048;-66
2023/03/12 12:01:25;;;;;;;26.15;18.85;;;4.40;99.90;;;;;;5046004;28;20037;-65
2023/03/12 12:04:09;;;;;;;28.65;19.45;;;;;;;;;;5042620;28;20505;-66
2023/03/12 12:07:13;;;;;;;28.35;18.92;;;4.60;99.90;;;;;;5045271;28;20094;-65
2023/03/12 12:09:45;;;;;;;32.30;17.80;;;;;;;;;;5041673;28;20083;-66
2023/03/12 12:12:15;;;;;;;30.75;19.70;;;;;;;;;;5026581;28;20055;-65
2023/03/12 12:14:41;;;;;;;32.25;18.45;;;4.80;99.90;;;;;;5046898;28;20192;-66
2023/03/12 12:17:19;;;;;;;34.03;20.30;;;5.20;99.90;;;;;;5046420;28;20168;-66
2023/03/12 12:19:54;;;;;;;41.50;20.08;;;;;;;;;;5023612;28;20038;-66
2023/03/12 12:22:21;;;;;;;34.38;19.80;;;;;;;;;;5038494;28;20037;-66
2023/03/12 12:24:47;;;;;;;36.17;20.27;;;;;;;;;;5038902;28;20430;-66
2023/03/12 12:27:28;;;;;;;35.10;20.52;;;5.20;99.90;;;;;;5046780;28;20048;-66
2023/03/12 12:30:13;;;;;;;46.30;19.60;;;5.60;99.90;;;;;;5048198;28;20490;-66
2023/03/12 12:32:58;;;;;;;42.60;18.95;;;5.80;99.90;;;;;;5045678;28;20096;-66
2023/03/12 12:35:35;;;;;;;36.30;17.52;;;;;;;;;;5044629;28;20132;-66
2023/03/12 12:38:13;;;;;;;36.63;14.77;;;;;;;;;;5043683;28;20045;-66
2023/03/12 12:40:44;;;;;;;43.50;16.17;;;5.90;99.90;;;;;;5045153;28;20121;-66
2023/03/12 12:43:26;;;;;;;43.28;15.65;;;6.20;99.90;;;;;;5051683;28;20036;-66
2023/03/12 12:45:54;;;;;;;35.50;14.32;;;;;;;;;;5040837;28;20519;-66
2023/03/12 12:48:23;;;;;;;33.30;14.13;;;;;;;;;;5036994;28;20652;-66
2023/03/12 12:50:51;;;;;;;30.42;12.82;;;;;;;;;;5044086;28;20111;-66
2023/03/12 12:53:25;;;;;;;30.15;13.07;;;;;;;;;;5031056;28;20045;-66
2023/03/12 12:55:51;;;;;;;35.10;11.65;;;;;;;;;;5025768;28;20099;-65
2023/03/12 12:58:23;;;;;;;34.20;12.68;;;;;;;;;;5028820;28;20494;-66
2023/03/12 13:00:51;;;;;;;32.60;12.82;;;;;;;;;;5054763;28;20064;-66
2023/03/12 13:03:19;;;;;;;36.65;13.05;;;;;;;;;;5027806;28;20041;-66
2023/03/12 13:05:49;;;;;;;27.30;11.60;;;;;;;;;;5026847;28;20037;-66
2023/03/12 13:08:44;;;;;;;32.22;11.05;;;;;;;;;;5040566;28;20041;-66
2023/03/12 13:11:16;;;;;;;29.90;12.00;;;;;;;;;;5014011;28;20114;-65
2023/03/12 13:13:43;;;;;;;34.75;12.30;;;;;;;;;;5044673;28;20040;-66
2023/03/12 13:16:16;;;;;;;36.60;11.27;;;;;;;;;;5043266;28;20051;-66
2023/03/12 13:18:56;;;;;;;22.77;10.80;;;6.30;99.90;;;;;;5030638;28;20116;-66
2023/03/12 13:21:31;;;;;;;26.20;10.60;;;7.60;99.90;;;;;;5025462;28;20080;-66
2023/03/12 13:24:16;;;;;;;29.83;10.95;;;;;;;;;;5027006;28;20044;-66
2023/03/12 13:27:17;;;;;;;26.77;10.20;;;7.60;99.90;;;;;;5033640;28;20038;-66
2023/03/12 13:29:43;;;;;;;33.70;10.73;;;7.80;99.90;;;;;;5031316;28;20085;-66
2023/03/12 13:32:34;;;;;;;27.42;9.25;;;7.80;99.90;;;;;;5035611;28;20051;-66
2023/03/12 13:35:27;;;;;;;26.95;9.13;;;7.80;99.90;;;;;;5039172;28;20033;-66
2023/03/12 13:37:52;;;;;;;23.73;9.48;;;7.80;99.90;;;;;;5037908;28;20088;-66
2023/03/12 13:40:30;;;;;;;23.30;8.63;;;7.80;99.90;;;;;;5050179;28;20495;-66
2023/03/12 13:43:15;;;;;;;24.83;8.43;;;7.80;99.90;;;;;;5047722;28;20037;-66
2023/03/12 13:46:00;;;;;;;25.25;8.68;;;7.90;99.90;;;;;;5053652;28;20037;-66
2023/03/12 13:48:26;;;;;;;27.85;7.82;;;;;;;;;;5038514;28;20046;-66
2023/03/12 13:50:53;;;;;;;30.73;8.73;;;;;;;;;;5054443;28;20068;-66
2023/03/12 13:53:41;;;;;;;24.10;7.93;;;7.90;99.90;;;;;;5039972;28;20041;-66
2023/03/12 13:56:11;;;;;;;25.83;7.97;;;8.10;99.90;;;;;;5047795;28;20072;-66
2023/03/12 13:58:54;;;;;;;28.45;9.02;;;8.10;99.90;;;;;;5047738;28;20044;-66
2023/03/12 14:01:22;;;;;;;22.92;9.23;;;8.20;99.90;;;;;;5045519;28;20044;-66
2023/03/12 14:03:55;;;;;;;19.88;7.13;;;8.20;99.90;;;;;;5031433;28;20032;-65
2023/03/12 14:06:25;;;;;;;20.35;8.95;;;8.30;99.90;;;;;;5027309;28;20247;-66
2023/03/12 14:09:15;;;;;;;30.33;8.55;;;8.30;99.90;;;;;;5028725;28;20039;-66
2023/03/12 14:12:07;;;;;;;26.63;9.50;;;8.40;99.90;;;;;;5044386;28;20114;-66
2023/03/12 14:15:07;;;;;;;30.30;8.95;;;8.50;99.90;;;;;;5047264;28;20223;-66
2023/03/12 14:17:36;;;;;;;19.33;8.20;;;8.50;99.90;;;;;;5035056;28;20051;-66
2023/03/12 14:20:15;;;;;;;21.70;8.43;;;8.50;99.90;;;;;;5047830;28;20037;-66
2023/03/12 14:22:43;;;;;;;37.70;10.65;;;;;;;;;;5048000;28;20124;-66
2023/03/12 14:25:15;;;;;;;28.60;9.27;;;;;;;;;;5048800;28;20053;-66
2023/03/12 14:27:44;;;;;;;29.45;7.68;;;;;;;;;;5047210;28;20526;-66
2023/03/12 14:30:10;;;;;;;38.70;9.60;;;;;;;;;;5047947;28;20422;-66
2023/03/12 14:32:37;;;;;;;20.50;7.65;;;;;;;;;;5045877;28;20135;-66
2023/03/12 14:35:22;;;;;;;30.40;8.07;;;;;;;;;;5049752;28;20135;-66
2023/03/12 14:37:58;;;;;;;19.63;7.95;;;;;;;;;;5050510;28;20569;-66